Atlantic - Newfoundland: Past 24 Hour Conditions

 

Argentia

01:30 AM NDT 25 April 2014
This table is a summary of hourly weather conditions for the past 24 hours.
Date / Time
(NDT)
Wind(knots) Conditions Visibility(km) Pressure(kPa) Air tempC) Relative humidity(%) Dew pointC)
25 April 2014
1:30 NE 21 gust 26 N/A N/A 99.4 3 93 2
0:30 NE 23 gust 29 N/A N/A 99.5 3 91 2
24 April 2014
23:30 ENE 23 gust 30 N/A N/A 99.6 3 91 2
22:30 ENE 19 gust 30 N/A N/A 99.7 3 89 2
21:30 ENE 20 gust 30 N/A N/A 99.8 3 91 2
20:30 ENE 19 gust 32 N/A N/A 99.8 3 91 2
19:30 ENE 24 gust 34 N/A N/A 99.8 3 90 1
18:30 NE 29 gust 36 N/A N/A 99.8 3 88 1
17:30 NE 25 gust 31 N/A N/A 100.0 3 84 0
16:30 NE 22 gust 31 N/A N/A 100.0 3 78 0
15:30 ENE 26 gust 36 N/A N/A 100.1 4 77 0
14:30 ENE 24 gust 35 N/A N/A 100.2 4 75 0
13:30 ENE 27 gust 33 N/A N/A 100.3 4 74 0
12:30 ENE 31 gust 38 N/A N/A 100.3 4 74 0
11:30 ENE 23 gust 33 N/A N/A 100.3 4 74 0
10:30 ENE 26 gust 33 N/A N/A 100.3 4 76 0
9:30 ENE 24 gust 37 N/A N/A 100.3 4 76 0
8:30 ENE 22 gust 32 N/A N/A 100.3 3 80 -1
7:30 NE 25 gust 32 N/A N/A 100.3 2 81 -1
6:30 ENE 24 gust 32 N/A N/A 100.3 2 82 -1
5:30 ENE 22 gust 28 N/A N/A 100.2 1 82 -1
4:30 ENE 25 gust 32 N/A N/A 100.2 1 81 -2
3:30 ENE 20 gust 28 N/A N/A 100.3 1 78 -2
2:30 NE 21 gust 28 N/A N/A 100.3 2 78 -2
1:30 ENE 25 gust 34 N/A N/A 100.3 2 76 -2
 
Map of Atlantic - Newfoundland marine weather areas Southwestern Grand Banks - 44138 Banquereau - 44139 Tail of the Bank - 44140 Nickerson Bank - 44251 Northeast Burgeo Bank - 44255 Blanc-Sablon Airport Cap Whittle Chevery Natashquan Airport Heath Point Miscou Island Grand Étang Ingonish Beach North Mountain St.Paul Island J.A. Douglas McCurdy Sydney Airport Charlottetown Airport East Point North Cape Argentia Bonavista Burgeo Cape Race Corner Brook Daniel's Harbour Englee Ferolle Point La Scie Port aux Basques Rocky Harbour Sagona Island St. Anthony Airport St. John's Int'l Airport St. Lawrence Stephenville Airport Twillingate Winterland Wreckhouse Cartwright Airport Mary's Harbour Grates Cove Pool's Island Marticot Island Long Pond Îles de la Madeleine Airport
Legend: buoyBuoy land stationLand Station